PWSweather.com
Personal Weather Stations
Station Observations

ChardChardGB

Lat: 50.877408, Lon: -2.94964741

Elevation: 341

Station Type: WS3083

http://www.merriott-astro.co.uk/weather/index.htm

High Low Average
Temperature 50.0°F10.0°C 29.3°F-1.5°C 38.8°F3.8°C
Dew Point 34.7°F1.5°C 21.4°F-5.9°C 27.0°F-2.8°C
Winds 12.9 mph 20.8 kmh 0.2 mph 0.3 kmh 5.0 mph SW8.0 kmh SW
Wind Gusts 21.3 mph34.3 kmh 2.2 mph3.5 kmh 7.0 mph11.3 kmh
Humidity 78% 40% 63%
Pressure 29.89 in1012.2 mb 29.53 in1000.0 mb -
Precipitation 0.04 in1.0 mm - -
Hour Temp Dew Point Humidity Winds Wind Gusts Pressure Precip Precip Rate Daily Precip Total
12:00 AM 34.3°F1.3°C 22.3°F-5.4°C 61% 1.9 mph NW3.1 kmh NW 3.1 mph5.0 kmh 29.82 in1009.8 mb 0.00 in0.0 mm 0.00 in0.0 mm 0.00 in0.0 mm
12:10 AM 34.2°F1.2°C 22.1°F-5.5°C 61% 2.5 mph NW4.0 kmh NW 4.5 mph7.2 kmh 29.82 in1009.8 mb 0.00 in0.0 mm 0.00 in0.0 mm 0.00 in0.0 mm
12:20 AM 34.2°F1.2°C 22.1°F-5.5°C 61% 2.3 mph SW3.7 kmh SW 5.4 mph8.7 kmh 29.84 in1010.5 mb 0.00 in0.0 mm 0.00 in0.0 mm 0.00 in0.0 mm
12:30 AM 34.2°F1.2°C 22.5°F-5.3°C 62% 2.2 mph SW3.5 kmh SW 5.4 mph8.7 kmh 29.83 in1010.2 mb 0.00 in0.0 mm 0.00 in0.0 mm 0.00 in0.0 mm
12:40 AM 33.8°F1.0°C 22.2°F-5.4°C 62% 1.6 mph S2.6 kmh S 3.1 mph5.0 kmh 29.84 in1010.5 mb 0.00 in0.0 mm 0.00 in0.0 mm 0.00 in0.0 mm
12:50 AM 33.8°F1.0°C 22.6°F-5.2°C 63% 1.7 mph WNW2.7 kmh WNW 3.1 mph5.0 kmh 29.84 in1010.5 mb 0.00 in0.0 mm 0.00 in0.0 mm 0.00 in0.0 mm
01:00 AM 33.6°F0.9°C 22.4°F-5.3°C 63% 0.5 mph SSW0.8 kmh SSW 2.2 mph3.5 kmh 29.84 in1010.5 mb 0.00 in0.0 mm 0.00 in0.0 mm 0.00 in0.0 mm
01:10 AM 32.9°F0.5°C 21.7°F-5.7°C 63% 0.2 mph SW0.3 kmh SW 2.2 mph3.5 kmh 29.84 in1010.5 mb 0.00 in0.0 mm 0.00 in0.0 mm 0.00 in0.0 mm
01:20 AM 33.1°F0.6°C 22.6°F-5.2°C 65% 1.8 mph SW2.9 kmh SW 3.1 mph5.0 kmh 29.83 in1010.2 mb 0.00 in0.0 mm 0.00 in0.0 mm 0.00 in0.0 mm
01:30 AM 33.1°F0.6°C 22.6°F-5.2°C 65% 1.9 mph NW3.1 kmh NW 3.1 mph5.0 kmh 29.83 in1010.2 mb 0.00 in0.0 mm 0.00 in0.0 mm 0.00 in0.0 mm
01:40 AM 33.6°F0.9°C 23.1°F-4.9°C 65% 3.2 mph NW5.1 kmh NW 5.4 mph8.7 kmh 29.84 in1010.5 mb 0.00 in0.0 mm 0.00 in0.0 mm 0.00 in0.0 mm
01:50 AM 33.6°F0.9°C 22.8°F-5.1°C 64% 2.5 mph W4.0 kmh W 5.4 mph8.7 kmh 29.84 in1010.5 mb 0.00 in0.0 mm 0.00 in0.0 mm 0.00 in0.0 mm
02:00 AM 33.4°F0.8°C 22.6°F-5.2°C 64% 1.8 mph SSW2.9 kmh SSW 3.1 mph5.0 kmh 29.84 in1010.5 mb 0.00 in0.0 mm 0.00 in0.0 mm 0.00 in0.0 mm
02:10 AM 33.4°F0.8°C 23.0°F-5.0°C 65% 2.0 mph SSW3.2 kmh SSW 3.8 mph6.1 kmh 29.84 in1010.5 mb 0.00 in0.0 mm 0.00 in0.0 mm 0.00 in0.0 mm
02:20 AM 33.6°F0.9°C 23.1°F-4.9°C 65% 2.2 mph S3.5 kmh S 3.1 mph5.0 kmh 29.84 in1010.5 mb 0.00 in0.0 mm 0.00 in0.0 mm 0.00 in0.0 mm
02:30 AM 33.6°F0.9°C 23.1°F-4.9°C 65% 2.0 mph SW3.2 kmh SW 3.8 mph6.1 kmh 29.84 in1010.5 mb 0.00 in0.0 mm 0.00 in0.0 mm 0.00 in0.0 mm
02:40 AM 33.6°F0.9°C 23.1°F-4.9°C 65% 2.2 mph W3.5 kmh W 3.8 mph6.1 kmh 29.84 in1010.5 mb 0.00 in0.0 mm 0.00 in0.0 mm 0.00 in0.0 mm
02:50 AM 33.6°F0.9°C 23.1°F-4.9°C 65% 2.4 mph NW3.9 kmh NW 3.8 mph6.1 kmh 29.84 in1010.5 mb 0.00 in0.0 mm 0.00 in0.0 mm 0.00 in0.0 mm
03:00 AM 33.8°F1.0°C 23.3°F-4.8°C 65% 2.3 mph NNW3.7 kmh NNW 5.4 mph8.7 kmh 29.85 in1010.8 mb 0.00 in0.0 mm 0.00 in0.0 mm 0.00 in0.0 mm
03:10 AM 33.8°F1.0°C 23.3°F-4.8°C 65% 2.8 mph SSW4.5 kmh SSW 3.8 mph6.1 kmh 29.84 in1010.5 mb 0.00 in0.0 mm 0.00 in0.0 mm 0.00 in0.0 mm
03:20 AM 33.6°F0.9°C 23.1°F-4.9°C 65% 1.9 mph WSW3.1 kmh WSW 3.1 mph5.0 kmh 29.85 in1010.8 mb 0.00 in0.0 mm 0.00 in0.0 mm 0.00 in0.0 mm
03:30 AM 33.8°F1.0°C 23.7°F-4.6°C 66% 3.8 mph SSW6.1 kmh SSW 6.0 mph9.7 kmh 29.84 in1010.5 mb 0.00 in0.0 mm 0.00 in0.0 mm 0.00 in0.0 mm
03:40 AM 33.8°F1.0°C 24.0°F-4.4°C 67% 2.7 mph WSW4.3 kmh WSW 6.0 mph9.7 kmh 29.85 in1010.8 mb 0.00 in0.0 mm 0.00 in0.0 mm 0.00 in0.0 mm
03:50 AM 33.3°F0.7°C 23.5°F-4.7°C 67% 1.7 mph S2.7 kmh S 3.1 mph5.0 kmh 29.84 in1010.5 mb 0.00 in0.0 mm 0.00 in0.0 mm 0.00 in0.0 mm
04:00 AM 32.5°F0.3°C 22.8°F-5.1°C 67% 2.4 mph S3.9 kmh S 3.1 mph5.0 kmh 29.84 in1010.5 mb 0.00 in0.0 mm 0.00 in0.0 mm 0.00 in0.0 mm
04:10 AM 32.5°F0.3°C 23.5°F-4.7°C 69% 3.1 mph S5.0 kmh S 3.8 mph6.1 kmh 29.85 in1010.8 mb 0.00 in0.0 mm 0.00 in0.0 mm 0.00 in0.0 mm
04:20 AM 32.4°F0.2°C 23.4°F-4.8°C 69% 3.5 mph S5.6 kmh S 4.5 mph7.2 kmh 29.85 in1010.8 mb 0.00 in0.0 mm 0.00 in0.0 mm 0.00 in0.0 mm
04:30 AM 32.0°F0.0°C 23.4°F-4.8°C 70% 2.9 mph S4.7 kmh S 3.1 mph5.0 kmh 29.85 in1010.8 mb 0.00 in0.0 mm 0.00 in0.0 mm 0.00 in0.0 mm
04:40 AM 32.4°F0.2°C 23.7°F-4.6°C 70% 3.9 mph S6.3 kmh S 4.5 mph7.2 kmh 29.85 in1010.8 mb 0.00 in0.0 mm 0.00 in0.0 mm 0.00 in0.0 mm
04:50 AM 32.4°F0.2°C 23.7°F-4.6°C 70% 2.7 mph S4.3 kmh S 3.8 mph6.1 kmh 29.85 in1010.8 mb 0.00 in0.0 mm 0.00 in0.0 mm 0.00 in0.0 mm
05:00 AM 31.6°F-0.2°C 23.0°F-5.0°C 70% 2.5 mph S4.0 kmh S 3.8 mph6.1 kmh 29.86 in1011.2 mb 0.00 in0.0 mm 0.00 in0.0 mm 0.00 in0.0 mm
05:10 AM 31.5°F-0.3°C 22.8°F-5.1°C 70% 3.2 mph S5.1 kmh S 3.8 mph6.1 kmh 29.85 in1010.8 mb 0.00 in0.0 mm 0.00 in0.0 mm 0.00 in0.0 mm
05:20 AM 31.8°F-0.1°C 23.5°F-4.7°C 71% 3.8 mph S6.1 kmh S 6.0 mph9.7 kmh 29.85 in1010.8 mb 0.00 in0.0 mm 0.00 in0.0 mm 0.00 in0.0 mm
05:30 AM 31.3°F-0.4°C 23.0°F-5.0°C 71% 3.3 mph S5.3 kmh S 4.5 mph7.2 kmh 29.85 in1010.8 mb 0.00 in0.0 mm 0.00 in0.0 mm 0.00 in0.0 mm
05:40 AM 31.3°F-0.4°C 23.0°F-5.0°C 71% 2.6 mph SSW4.2 kmh SSW 3.8 mph6.1 kmh 29.86 in1011.2 mb 0.00 in0.0 mm 0.00 in0.0 mm 0.00 in0.0 mm
05:50 AM 31.6°F-0.2°C 23.7°F-4.6°C 72% 2.9 mph SSW4.7 kmh SSW 4.5 mph7.2 kmh 29.86 in1011.2 mb 0.00 in0.0 mm 0.00 in0.0 mm 0.00 in0.0 mm
06:00 AM 31.1°F-0.5°C 23.2°F-4.9°C 72% 3.3 mph S5.3 kmh S 5.4 mph8.7 kmh 29.86 in1011.2 mb 0.00 in0.0 mm 0.00 in0.0 mm 0.00 in0.0 mm
06:10 AM 30.9°F-0.6°C 23.0°F-5.0°C 72% 3.9 mph S6.3 kmh S 5.4 mph8.7 kmh 29.86 in1011.2 mb 0.00 in0.0 mm 0.00 in0.0 mm 0.00 in0.0 mm
06:20 AM 30.7°F-0.7°C 22.8°F-5.1°C 72% 4.3 mph S6.9 kmh S 5.4 mph8.7 kmh 29.86 in1011.2 mb 0.00 in0.0 mm 0.00 in0.0 mm 0.00 in0.0 mm
06:30 AM 30.6°F-0.8°C 23.0°F-5.0°C 73% 3.6 mph SSW5.8 kmh SSW 5.4 mph8.7 kmh 29.86 in1011.2 mb 0.00 in0.0 mm 0.00 in0.0 mm 0.00 in0.0 mm
06:40 AM 30.0°F-1.1°C 22.1°F-5.5°C 72% 1.0 mph SSE1.6 kmh SSE 2.2 mph3.5 kmh 29.86 in1011.2 mb 0.00 in0.0 mm 0.00 in0.0 mm 0.00 in0.0 mm
06:50 AM 29.3°F-1.5°C 21.4°F-5.9°C 72% 1.3 mph ESE2.1 kmh ESE 2.2 mph3.5 kmh 29.87 in1011.5 mb 0.00 in0.0 mm 0.00 in0.0 mm 0.00 in0.0 mm
07:00 AM 30.2°F-1.0°C 22.6°F-5.2°C 73% 2.7 mph S4.3 kmh S 4.5 mph7.2 kmh 29.86 in1011.2 mb 0.00 in0.0 mm 0.00 in0.0 mm 0.00 in0.0 mm
07:10 AM 30.6°F-0.8°C 23.3°F-4.8°C 74% 2.7 mph S4.3 kmh S 3.8 mph6.1 kmh 29.86 in1011.2 mb 0.00 in0.0 mm 0.00 in0.0 mm 0.00 in0.0 mm
07:20 AM 31.3°F-0.4°C 24.6°F-4.1°C 76% 3.9 mph SSW6.3 kmh SSW 6.0 mph9.7 kmh 29.87 in1011.5 mb 0.00 in0.0 mm 0.00 in0.0 mm 0.00 in0.0 mm
07:30 AM 31.5°F-0.3°C 24.5°F-4.2°C 75% 3.0 mph S4.8 kmh S 4.5 mph7.2 kmh 29.87 in1011.5 mb 0.00 in0.0 mm 0.00 in0.0 mm 0.00 in0.0 mm
07:40 AM 30.9°F-0.6°C 23.6°F-4.7°C 74% 3.4 mph S5.5 kmh S 3.8 mph6.1 kmh 29.87 in1011.5 mb 0.00 in0.0 mm 0.00 in0.0 mm 0.00 in0.0 mm
07:50 AM 30.9°F-0.6°C 23.6°F-4.7°C 74% 3.7 mph S6.0 kmh S 4.5 mph7.2 kmh 29.87 in1011.5 mb 0.00 in0.0 mm 0.00 in0.0 mm 0.00 in0.0 mm
08:00 AM 30.9°F-0.6°C 23.6°F-4.7°C 74% 3.2 mph S5.1 kmh S 4.5 mph7.2 kmh 29.87 in1011.5 mb 0.00 in0.0 mm 0.00 in0.0 mm 0.00 in0.0 mm
08:10 AM 30.9°F-0.6°C 23.6°F-4.7°C 74% 1.3 mph SW2.1 kmh SW 2.2 mph3.5 kmh 29.87 in1011.5 mb 0.00 in0.0 mm 0.00 in0.0 mm 0.00 in0.0 mm
08:20 AM 32.4°F0.2°C 25.3°F-3.7°C 75% 2.3 mph NW3.7 kmh NW 3.1 mph5.0 kmh 29.88 in1011.9 mb 0.00 in0.0 mm 0.00 in0.0 mm 0.00 in0.0 mm
08:30 AM 34.0°F1.1°C 27.2°F-2.7°C 76% 4.2 mph NW6.8 kmh NW 6.0 mph9.7 kmh 29.87 in1011.5 mb 0.00 in0.0 mm 0.00 in0.0 mm 0.00 in0.0 mm
08:40 AM 35.1°F1.7°C 28.0°F-2.2°C 75% 6.0 mph WNW9.7 kmh WNW 8.3 mph13.4 kmh 29.88 in1011.9 mb 0.00 in0.0 mm 0.00 in0.0 mm 0.00 in0.0 mm
08:50 AM 35.8°F2.1°C 28.3°F-2.1°C 74% 4.6 mph WNW7.4 kmh WNW 7.6 mph12.2 kmh 29.88 in1011.9 mb 0.00 in0.0 mm 0.00 in0.0 mm 0.00 in0.0 mm
09:00 AM 36.1°F2.3°C 28.3°F-2.1°C 73% 3.1 mph SW5.0 kmh SW 4.5 mph7.2 kmh 29.88 in1011.9 mb 0.00 in0.0 mm 0.00 in0.0 mm 0.00 in0.0 mm
09:10 AM 36.3°F2.4°C 28.5°F-1.9°C 73% 3.8 mph S6.1 kmh S 7.6 mph12.2 kmh 29.88 in1011.9 mb 0.00 in0.0 mm 0.00 in0.0 mm 0.00 in0.0 mm
09:20 AM 35.6°F2.0°C 27.1°F-2.7°C 71% 2.6 mph SSE4.2 kmh SSE 3.8 mph6.1 kmh 29.89 in1012.2 mb 0.00 in0.0 mm 0.00 in0.0 mm 0.00 in0.0 mm
09:30 AM 35.4°F1.9°C 27.0°F-2.8°C 71% 4.2 mph S6.8 kmh S 6.0 mph9.7 kmh 29.88 in1011.9 mb 0.00 in0.0 mm 0.00 in0.0 mm 0.00 in0.0 mm
09:40 AM 35.8°F2.1°C 27.3°F-2.6°C 71% 4.5 mph SE7.2 kmh SE 6.0 mph9.7 kmh 29.88 in1011.9 mb 0.00 in0.0 mm 0.00 in0.0 mm 0.00 in0.0 mm
09:50 AM 36.5°F2.5°C 28.0°F-2.2°C 71% 2.7 mph E4.3 kmh E 4.5 mph7.2 kmh 29.88 in1011.9 mb 0.00 in0.0 mm 0.00 in0.0 mm 0.00 in0.0 mm
10:00 AM 37.0°F2.8°C 28.2°F-2.1°C 70% 3.4 mph S5.5 kmh S 5.4 mph8.7 kmh 29.88 in1011.9 mb 0.00 in0.0 mm 0.00 in0.0 mm 0.00 in0.0 mm
10:10 AM 41.0°F5.0°C 30.9°F-0.6°C 67% 3.5 mph S5.6 kmh S 6.0 mph9.7 kmh 29.88 in1011.9 mb 0.00 in0.0 mm 0.00 in0.0 mm 0.00 in0.0 mm
10:20 AM 43.0°F6.1°C 31.3°F-0.4°C 63% 4.5 mph SSW7.2 kmh SSW 7.6 mph12.2 kmh 29.88 in1011.9 mb 0.00 in0.0 mm 0.00 in0.0 mm 0.00 in0.0 mm
10:30 AM 43.5°F6.4°C 30.6°F-0.8°C 60% 5.0 mph SSW8.0 kmh SSW 7.6 mph12.2 kmh 29.88 in1011.9 mb 0.00 in0.0 mm 0.00 in0.0 mm 0.00 in0.0 mm
10:40 AM 43.9°F6.6°C 30.9°F-0.6°C 60% 5.8 mph SW9.3 kmh SW 8.3 mph13.4 kmh 29.88 in1011.9 mb 0.00 in0.0 mm 0.00 in0.0 mm 0.00 in0.0 mm
10:50 AM 45.1°F7.3°C 31.3°F-0.4°C 58% 5.3 mph SSW8.5 kmh SSW 8.3 mph13.4 kmh 29.88 in1011.9 mb 0.00 in0.0 mm 0.00 in0.0 mm 0.00 in0.0 mm
11:00 AM 45.5°F7.5°C 28.4°F-2.0°C 51% 6.4 mph SW10.3 kmh SW 9.2 mph14.8 kmh 29.88 in1011.9 mb 0.00 in0.0 mm 0.00 in0.0 mm 0.00 in0.0 mm
11:10 AM 45.9°F7.7°C 28.8°F-1.8°C 51% 5.0 mph S8.0 kmh S 9.2 mph14.8 kmh 29.88 in1011.9 mb 0.00 in0.0 mm 0.00 in0.0 mm 0.00 in0.0 mm
11:20 AM 46.2°F7.9°C 28.6°F-1.9°C 50% 6.1 mph SW9.8 kmh SW 8.3 mph13.4 kmh 29.87 in1011.5 mb 0.00 in0.0 mm 0.00 in0.0 mm 0.00 in0.0 mm
11:30 AM 46.6°F8.1°C 29.0°F-1.7°C 50% 5.3 mph W8.5 kmh W 6.9 mph11.1 kmh 29.88 in1011.9 mb 0.00 in0.0 mm 0.00 in0.0 mm 0.00 in0.0 mm
11:40 AM 47.3°F8.5°C 29.6°F-1.3°C 50% 5.8 mph WSW9.3 kmh WSW 8.3 mph13.4 kmh 29.88 in1011.9 mb 0.00 in0.0 mm 0.00 in0.0 mm 0.00 in0.0 mm
11:50 AM 47.3°F8.5°C 28.1°F-2.2°C 47% 7.2 mph SSW11.6 kmh SSW 11.4 mph18.3 kmh 29.88 in1011.9 mb 0.00 in0.0 mm 0.00 in0.0 mm 0.00 in0.0 mm
12:00 PM 47.1°F8.4°C 28.5°F-1.9°C 48% 4.5 mph WNW7.2 kmh WNW 6.0 mph9.7 kmh 29.87 in1011.5 mb 0.00 in0.0 mm 0.00 in0.0 mm 0.00 in0.0 mm
12:10 PM 46.6°F8.1°C 29.0°F-1.7°C 50% 5.8 mph SW9.3 kmh SW 6.9 mph11.1 kmh 29.86 in1011.2 mb 0.00 in0.0 mm 0.00 in0.0 mm 0.00 in0.0 mm
12:20 PM 46.8°F8.2°C 28.6°F-1.9°C 49% 6.2 mph W10.0 kmh W 8.3 mph13.4 kmh 29.86 in1011.2 mb 0.00 in0.0 mm 0.00 in0.0 mm 0.00 in0.0 mm
12:30 PM 45.3°F7.4°C 30.6°F-0.8°C 56% 5.3 mph N8.5 kmh N 7.6 mph12.2 kmh 29.85 in1010.8 mb 0.00 in0.0 mm 0.00 in0.0 mm 0.00 in0.0 mm
12:40 PM 48.9°F9.4°C 29.1°F-1.6°C 46% 4.8 mph SW7.7 kmh SW 10.7 mph17.2 kmh 29.85 in1010.8 mb 0.00 in0.0 mm 0.00 in0.0 mm 0.00 in0.0 mm
12:50 PM 49.6°F9.8°C 26.9°F-2.8°C 41% 6.0 mph S9.7 kmh S 9.8 mph15.8 kmh 29.85 in1010.8 mb 0.00 in0.0 mm 0.00 in0.0 mm 0.00 in0.0 mm
01:00 PM 49.3°F9.6°C 26.0°F-3.3°C 40% 6.7 mph S10.8 kmh S 13.0 mph20.9 kmh 29.84 in1010.5 mb 0.00 in0.0 mm 0.00 in0.0 mm 0.00 in0.0 mm
01:10 PM 47.3°F8.5°C 24.8°F-4.0°C 41% 7.9 mph S12.7 kmh S 9.8 mph15.8 kmh 29.84 in1010.5 mb 0.00 in0.0 mm 0.00 in0.0 mm 0.00 in0.0 mm
01:20 PM 46.8°F8.2°C 25.5°F-3.6°C 43% 7.2 mph WSW11.6 kmh WSW 9.8 mph15.8 kmh 29.85 in1010.8 mb 0.00 in0.0 mm 0.00 in0.0 mm 0.00 in0.0 mm
01:30 PM 48.2°F9.0°C 26.2°F-3.2°C 42% 5.9 mph W9.5 kmh W 7.6 mph12.2 kmh 29.83 in1010.2 mb 0.00 in0.0 mm 0.00 in0.0 mm 0.00 in0.0 mm
01:40 PM 46.8°F8.2°C 26.6°F-3.0°C 45% 4.8 mph SW7.7 kmh SW 7.6 mph12.2 kmh 29.83 in1010.2 mb 0.00 in0.0 mm 0.00 in0.0 mm 0.00 in0.0 mm
01:50 PM 47.5°F8.6°C 27.2°F-2.7°C 45% 5.0 mph WSW8.0 kmh WSW 6.9 mph11.1 kmh 29.82 in1009.8 mb 0.00 in0.0 mm 0.00 in0.0 mm 0.01 in0.3 mm
02:00 PM 47.1°F8.4°C 27.4°F-2.6°C 46% 4.5 mph WSW7.2 kmh WSW 6.0 mph9.7 kmh 29.82 in1009.8 mb 0.00 in0.0 mm 0.00 in0.0 mm 0.01 in0.3 mm
02:10 PM 49.6°F9.8°C 29.2°F-1.6°C 45% 6.4 mph SE10.3 kmh SE 9.2 mph14.8 kmh 29.81 in1009.5 mb 0.00 in0.0 mm 0.00 in0.0 mm 0.01 in0.3 mm
02:20 PM 50.0°F10.0°C 27.8°F-2.3°C 42% 6.1 mph SW9.8 kmh SW 9.2 mph14.8 kmh 29.81 in1009.5 mb 0.00 in0.0 mm 0.00 in0.0 mm 0.01 in0.3 mm
02:30 PM 48.6°F9.2°C 27.1°F-2.7°C 43% 5.8 mph SW9.3 kmh SW 8.3 mph13.4 kmh 29.81 in1009.5 mb 0.00 in0.0 mm 0.00 in0.0 mm 0.01 in0.3 mm
02:40 PM 46.9°F8.3°C 26.7°F-2.9°C 45% 4.0 mph SW6.4 kmh SW 7.6 mph12.2 kmh 29.80 in1009.1 mb 0.00 in0.0 mm 0.00 in0.0 mm 0.01 in0.3 mm
02:50 PM 46.2°F7.9°C 26.6°F-3.0°C 46% 4.0 mph SW6.4 kmh SW 6.9 mph11.1 kmh 29.80 in1009.1 mb 0.00 in0.0 mm 0.00 in0.0 mm 0.01 in0.3 mm
03:00 PM 46.0°F7.8°C 25.9°F-3.4°C 45% 4.2 mph WSW6.8 kmh WSW 6.0 mph9.7 kmh 29.79 in1008.8 mb 0.00 in0.0 mm 0.00 in0.0 mm 0.01 in0.3 mm
03:10 PM 46.0°F7.8°C 25.4°F-3.7°C 44% 3.9 mph SW6.3 kmh SW 6.9 mph11.1 kmh 29.79 in1008.8 mb 0.00 in0.0 mm 0.00 in0.0 mm 0.01 in0.3 mm
03:20 PM 46.9°F8.3°C 27.8°F-2.3°C 47% 6.5 mph SW10.5 kmh SW 9.8 mph15.8 kmh 29.80 in1009.1 mb 0.00 in0.0 mm 0.00 in0.0 mm 0.01 in0.3 mm
03:30 PM 47.8°F8.8°C 26.4°F-3.1°C 43% 7.4 mph W11.9 kmh W 11.4 mph18.3 kmh 29.78 in1008.5 mb 0.00 in0.0 mm 0.00 in0.0 mm 0.01 in0.3 mm
03:40 PM 47.3°F8.5°C 24.8°F-4.0°C 41% 6.1 mph S9.8 kmh S 13.0 mph20.9 kmh 29.78 in1008.5 mb 0.00 in0.0 mm 0.00 in0.0 mm 0.01 in0.3 mm
03:50 PM 46.0°F7.8°C 24.8°F-4.0°C 43% 8.8 mph SSW14.2 kmh SSW 15.2 mph24.5 kmh 29.77 in1008.1 mb 0.00 in0.0 mm 0.00 in0.0 mm 0.01 in0.3 mm
04:00 PM 46.8°F8.2°C 26.0°F-3.3°C 44% 6.2 mph SW10.0 kmh SW 9.2 mph14.8 kmh 29.77 in1008.1 mb 0.00 in0.0 mm 0.00 in0.0 mm 0.01 in0.3 mm
04:10 PM 45.7°F7.6°C 27.1°F-2.7°C 48% 4.1 mph S6.6 kmh S 7.6 mph12.2 kmh 29.76 in1007.8 mb 0.00 in0.0 mm 0.00 in0.0 mm 0.01 in0.3 mm
04:20 PM 44.1°F6.7°C 28.9°F-1.7°C 55% 4.3 mph SW6.9 kmh SW 6.0 mph9.7 kmh 29.76 in1007.8 mb 0.00 in0.0 mm 0.00 in0.0 mm 0.01 in0.3 mm
04:30 PM 43.3°F6.3°C 29.6°F-1.3°C 58% 4.3 mph SW6.9 kmh SW 6.0 mph9.7 kmh 29.75 in1007.5 mb 0.00 in0.0 mm 0.00 in0.0 mm 0.01 in0.3 mm
04:40 PM 43.5°F6.4°C 30.2°F-1.0°C 59% 3.8 mph SSW6.1 kmh SSW 6.9 mph11.1 kmh 29.75 in1007.5 mb 0.00 in0.0 mm 0.00 in0.0 mm 0.01 in0.3 mm
04:50 PM 43.3°F6.3°C 30.4°F-0.9°C 60% 4.5 mph SW7.2 kmh SW 6.9 mph11.1 kmh 29.75 in1007.5 mb 0.00 in0.0 mm 0.00 in0.0 mm 0.01 in0.3 mm
05:00 PM 42.6°F5.9°C 29.7°F-1.3°C 60% 4.3 mph SW6.9 kmh SW 7.6 mph12.2 kmh 29.75 in1007.5 mb 0.00 in0.0 mm 0.00 in0.0 mm 0.01 in0.3 mm
05:10 PM 41.9°F5.5°C 29.4°F-1.4°C 61% 4.0 mph SW6.4 kmh SW 6.0 mph9.7 kmh 29.74 in1007.1 mb 0.00 in0.0 mm 0.00 in0.0 mm 0.01 in0.3 mm
05:20 PM 41.0°F5.0°C 28.6°F-1.9°C 61% 2.1 mph S3.4 kmh S 3.8 mph6.1 kmh 29.74 in1007.1 mb 0.00 in0.0 mm 0.00 in0.0 mm 0.01 in0.3 mm
05:30 PM 40.5°F4.7°C 28.1°F-2.2°C 61% 3.8 mph SW6.1 kmh SW 6.9 mph11.1 kmh 29.74 in1007.1 mb 0.00 in0.0 mm 0.00 in0.0 mm 0.01 in0.3 mm
05:40 PM 40.5°F4.7°C 28.5°F-1.9°C 62% 5.4 mph SW8.7 kmh SW 7.6 mph12.2 kmh 29.73 in1006.8 mb 0.00 in0.0 mm 0.00 in0.0 mm 0.01 in0.3 mm
05:50 PM 40.3°F4.6°C 28.3°F-2.1°C 62% 6.0 mph SW9.7 kmh SW 9.8 mph15.8 kmh 29.73 in1006.8 mb 0.00 in0.0 mm 0.00 in0.0 mm 0.01 in0.3 mm
06:00 PM 40.3°F4.6°C 28.3°F-2.1°C 62% 6.0 mph SSW9.7 kmh SSW 9.8 mph15.8 kmh 29.73 in1006.8 mb 0.00 in0.0 mm 0.00 in0.0 mm 0.01 in0.3 mm
06:10 PM 39.9°F4.4°C 28.4°F-2.0°C 63% 4.9 mph SSW7.9 kmh SSW 7.6 mph12.2 kmh 29.73 in1006.8 mb 0.00 in0.0 mm 0.00 in0.0 mm 0.01 in0.3 mm
06:20 PM 39.7°F4.3°C 28.2°F-2.1°C 63% 5.5 mph SSW8.9 kmh SSW 7.6 mph12.2 kmh 29.72 in1006.4 mb 0.00 in0.0 mm 0.00 in0.0 mm 0.01 in0.3 mm
06:30 PM 39.4°F4.1°C 28.2°F-2.1°C 64% 6.3 mph S10.1 kmh S 9.2 mph14.8 kmh 29.72 in1006.4 mb 0.00 in0.0 mm 0.00 in0.0 mm 0.01 in0.3 mm
06:40 PM 38.8°F3.8°C 28.1°F-2.2°C 65% 4.4 mph S7.1 kmh S 6.0 mph9.7 kmh 29.72 in1006.4 mb 0.00 in0.0 mm 0.00 in0.0 mm 0.01 in0.3 mm
06:50 PM 38.1°F3.4°C 27.8°F-2.3°C 66% 3.5 mph S5.6 kmh S 5.4 mph8.7 kmh 29.71 in1006.1 mb 0.00 in0.0 mm 0.00 in0.0 mm 0.01 in0.3 mm
07:00 PM 37.8°F3.2°C 27.8°F-2.3°C 67% 2.6 mph S4.2 kmh S 3.1 mph5.0 kmh 29.71 in1006.1 mb 0.00 in0.0 mm 0.00 in0.0 mm 0.01 in0.3 mm
07:10 PM 37.4°F3.0°C 28.2°F-2.1°C 69% 3.5 mph SSW5.6 kmh SSW 4.5 mph7.2 kmh 29.70 in1005.8 mb 0.00 in0.0 mm 0.00 in0.0 mm 0.01 in0.3 mm
07:20 PM 37.2°F2.9°C 28.4°F-2.0°C 70% 4.6 mph SW7.4 kmh SW 6.0 mph9.7 kmh 29.70 in1005.8 mb 0.00 in0.0 mm 0.00 in0.0 mm 0.01 in0.3 mm
07:30 PM 38.1°F3.4°C 29.2°F-1.6°C 70% 5.2 mph SSW8.4 kmh SSW 7.6 mph12.2 kmh 29.69 in1005.4 mb 0.00 in0.0 mm 0.00 in0.0 mm 0.01 in0.3 mm
07:40 PM 39.4°F4.1°C 30.4°F-0.9°C 70% 7.9 mph SW12.7 kmh SW 12.1 mph19.5 kmh 29.68 in1005.1 mb 0.00 in0.0 mm 0.00 in0.0 mm 0.01 in0.3 mm
07:50 PM 40.3°F4.6°C 30.9°F-0.6°C 69% 8.9 mph S14.3 kmh S 12.1 mph19.5 kmh 29.68 in1005.1 mb 0.00 in0.0 mm 0.00 in0.0 mm 0.01 in0.3 mm
08:00 PM 40.3°F4.6°C 30.6°F-0.8°C 68% 7.5 mph SW12.1 kmh SW 10.7 mph17.2 kmh 29.68 in1005.1 mb 0.00 in0.0 mm 0.00 in0.0 mm 0.01 in0.3 mm
08:10 PM 40.3°F4.6°C 30.9°F-0.6°C 69% 5.9 mph S9.5 kmh S 9.2 mph14.8 kmh 29.67 in1004.7 mb 0.00 in0.0 mm 0.00 in0.0 mm 0.01 in0.3 mm
08:20 PM 40.3°F4.6°C 30.9°F-0.6°C 69% 10.2 mph S16.4 kmh S 16.8 mph27.0 kmh 29.67 in1004.7 mb 0.00 in0.0 mm 0.00 in0.0 mm 0.01 in0.3 mm
08:30 PM 40.1°F4.5°C 30.8°F-0.7°C 69% 9.1 mph SW14.6 kmh SW 13.0 mph20.9 kmh 29.67 in1004.7 mb 0.00 in0.0 mm 0.00 in0.0 mm 0.01 in0.3 mm
08:40 PM 40.1°F4.5°C 30.8°F-0.7°C 69% 6.2 mph SSW10.0 kmh SSW 8.3 mph13.4 kmh 29.67 in1004.7 mb 0.00 in0.0 mm 0.00 in0.0 mm 0.01 in0.3 mm
08:50 PM 39.6°F4.2°C 30.2°F-1.0°C 69% 6.3 mph SW10.1 kmh SW 10.7 mph17.2 kmh 29.66 in1004.4 mb 0.00 in0.0 mm 0.00 in0.0 mm 0.01 in0.3 mm
09:00 PM 38.8°F3.8°C 29.9°F-1.2°C 70% 7.1 mph S11.4 kmh S 9.8 mph15.8 kmh 29.65 in1004.1 mb 0.00 in0.0 mm 0.00 in0.0 mm 0.01 in0.3 mm
09:10 PM 38.7°F3.7°C 30.4°F-0.9°C 72% 6.3 mph SW10.1 kmh SW 8.3 mph13.4 kmh 29.64 in1003.7 mb 0.00 in0.0 mm 0.00 in0.0 mm 0.01 in0.3 mm
09:20 PM 38.3°F3.5°C 30.4°F-0.9°C 73% 4.5 mph S7.2 kmh S 6.0 mph9.7 kmh 29.64 in1003.7 mb 0.00 in0.0 mm 0.00 in0.0 mm 0.01 in0.3 mm
09:30 PM 38.8°F3.8°C 31.6°F-0.2°C 75% 6.8 mph SW10.9 kmh SW 13.0 mph20.9 kmh 29.63 in1003.4 mb 0.00 in0.0 mm 0.00 in0.0 mm 0.01 in0.3 mm
09:40 PM 39.9°F4.4°C 33.0°F0.6°C 76% 10.9 mph SSW17.5 kmh SSW 19.0 mph30.6 kmh 29.62 in1003.0 mb 0.00 in0.0 mm 0.00 in0.0 mm 0.01 in0.3 mm
09:50 PM 40.6°F4.8°C 33.0°F0.6°C 74% 10.8 mph SW17.4 kmh SW 15.2 mph24.5 kmh 29.62 in1003.0 mb 0.00 in0.0 mm 0.00 in0.0 mm 0.01 in0.3 mm
10:00 PM 40.8°F4.9°C 32.8°F0.4°C 73% 10.1 mph SSW16.3 kmh SSW 12.1 mph19.5 kmh 29.61 in1002.7 mb 0.00 in0.0 mm 0.00 in0.0 mm 0.01 in0.3 mm
10:10 PM 41.2°F5.1°C 32.5°F0.3°C 71% 9.0 mph SSW14.5 kmh SSW 10.7 mph17.2 kmh 29.60 in1002.4 mb 0.00 in0.0 mm 0.00 in0.0 mm 0.01 in0.3 mm
10:20 PM 40.6°F4.8°C 32.0°F0.0°C 71% 12.8 mph SW20.6 kmh SW 21.3 mph34.3 kmh 29.60 in1002.4 mb 0.01 in0.3 mm 0.06 in1.5 mm 0.02 in0.5 mm
10:30 PM 39.9°F4.4°C 32.0°F0.0°C 73% 12.9 mph S20.8 kmh S 15.2 mph24.5 kmh 29.59 in1002.0 mb 0.01 in0.3 mm 0.00 in0.0 mm 0.02 in0.5 mm
10:40 PM 39.2°F4.0°C 32.0°F0.0°C 75% 9.6 mph SSW15.4 kmh SSW 12.1 mph19.5 kmh 29.58 in1001.7 mb 0.01 in0.3 mm 0.00 in0.0 mm 0.02 in0.5 mm
10:50 PM 39.0°F3.9°C 31.8°F-0.1°C 75% 8.3 mph SW13.4 kmh SW 11.4 mph18.3 kmh 29.58 in1001.7 mb 0.01 in0.3 mm 0.00 in0.0 mm 0.02 in0.5 mm
11:00 PM 39.0°F3.9°C 31.4°F-0.3°C 74% 6.7 mph S10.8 kmh S 8.3 mph13.4 kmh 29.57 in1001.4 mb 0.01 in0.3 mm 0.00 in0.0 mm 0.02 in0.5 mm
11:10 PM 39.7°F4.3°C 32.5°F0.3°C 75% 7.0 mph SW11.3 kmh SW 9.8 mph15.8 kmh 29.56 in1001.0 mb 0.01 in0.3 mm 0.00 in0.0 mm 0.02 in0.5 mm
11:20 PM 40.3°F4.6°C 34.0°F1.1°C 78% 8.6 mph SW13.8 kmh SW 11.4 mph18.3 kmh 29.56 in1001.0 mb 0.01 in0.3 mm 0.00 in0.0 mm 0.04 in1.0 mm
11:30 PM 40.8°F4.9°C 34.5°F1.4°C 78% 12.0 mph SW19.3 kmh SW 13.6 mph21.9 kmh 29.54 in1000.3 mb 0.01 in0.3 mm 0.00 in0.0 mm 0.04 in1.0 mm
11:40 PM 41.0°F5.0°C 34.4°F1.3°C 77% 11.4 mph SSW18.3 kmh SSW 14.5 mph23.3 kmh 29.54 in1000.3 mb 0.01 in0.3 mm 0.00 in0.0 mm 0.04 in1.0 mm
11:50 PM 41.4°F5.2°C 34.7°F1.5°C 77% 11.3 mph SW18.2 kmh SW 21.3 mph34.3 kmh 29.53 in1000.0 mb 0.01 in0.3 mm 0.00 in0.0 mm 0.04 in1.0 mm